»·PEaware :: N190FT KLAS-KLAS

N190FT :: KLAS-KLAS

FLIGHT INFORMATION

Flight Status: Arrived
Operator: Privately registered:
United States
More flights under this callsign
Pilot: Manhattan Flying Club (7137)
Aircraft: PIPER PA-28R-201 ARROW
(P28R)
More flights by this aircraft type
Origin: KLAS McCarran Intl
United States
Destination: KLAS McCarran Intl
United States
More flights between these airports :: More routes between these airports
Route: +LAS
File this flight plan on PilotEdge
Remarks:
Altitude:
(Current/Filed)
7,000ft
Speed:
(Current/Filed)
135kts
Departed: 03-Jan-18 01:10 PM
Arrived: 03-Jan-18 01:31 PM
Distance/Time
Traveled:
0nm/0:21
Distance/Time
To Go:
Arrived

Flight Plot

Page will automatically refresh every two minutes.


Map Options




Map Legend


Flown Route
Filed Route
Departure Airport
Arrival Airport
Navaid (VOR, NDB)
Fix

Horizontal Profiles

Position Reports

Time Latitude Longitude Heading Altitude Ground
Speed
03-Jan-18 12:58 36.082569 -115.129497 89 2144ft 0kts
03-Jan-18 12:59 36.082569 -115.129497 89 2144ft 0kts
03-Jan-18 13:00 36.082569 -115.129497 89 2144ft 0kts
03-Jan-18 13:01 36.082569 -115.129497 89 2144ft 0kts
03-Jan-18 13:02 36.082569 -115.129497 89 2144ft 0kts
03-Jan-18 13:03 36.082569 -115.129497 89 2144ft 0kts
03-Jan-18 13:04 36.081825 -115.128929 182 2144ft 0kts
03-Jan-18 13:05 36.081825 -115.128929 182 2144ft 0kts
03-Jan-18 13:06 36.081825 -115.128929 182 2144ft 0kts
03-Jan-18 13:07 36.081825 -115.128929 182 2144ft 0kts
03-Jan-18 13:08 36.081825 -115.128929 182 2144ft 0kts
03-Jan-18 13:09 36.081714 -115.128933 180 2144ft 9kts
03-Jan-18 13:10 36.079558 -115.129139 183 2144ft 0kts
03-Jan-18 13:11 36.079304 -115.130014 247 2144ft 11kts
03-Jan-18 13:12 36.078255 -115.124735 90 2144ft 28kts
03-Jan-18 13:13 36.077349 -115.121422 148 2144ft 0kts
03-Jan-18 13:14 36.077349 -115.121422 148 2144ft 0kts
03-Jan-18 13:15 36.076369 -115.121980 261 2144ft 28kts
03-Jan-18 13:16 36.073145 -115.152432 218 2701ft 109kts
03-Jan-18 13:17 36.043773 -115.159358 182 3623ft 110kts
03-Jan-18 13:18 36.012849 -115.164740 186 4372ft 113kts
03-Jan-18 13:19 35.982009 -115.172291 191 5208ft 111kts
03-Jan-18 13:20 35.950161 -115.180175 194 6106ft 125kts
03-Jan-18 13:21 35.916524 -115.190667 193 7026ft 125kts
03-Jan-18 13:22 35.880725 -115.200353 194 7354ft 155kts
03-Jan-18 13:23 35.836630 -115.212994 192 6967ft 160kts
03-Jan-18 13:24 35.795107 -115.223260 190 7042ft 144kts
03-Jan-18 13:25 35.754350 -115.232933 191 6947ft 148kts
03-Jan-18 13:26 35.717139 -115.248743 240 7005ft 149kts
03-Jan-18 13:27 35.741760 -115.274025 4 7020ft 151kts
03-Jan-18 13:28 35.782718 -115.267711 9 6996ft 153kts
03-Jan-18 13:29 35.824536 -115.263898 353 6963ft 150kts
03-Jan-18 13:30 35.867608 -115.268411 356 6466ft 164kts
03-Jan-18 13:31 35.913041 -115.267898 9 5799ft 163kts
03-Jan-18 13:32 35.951308 -115.240764 36 5195ft 159kts
03-Jan-18 13:33 35.988747 -115.214408 24 4416ft 147kts
03-Jan-18 13:34 36.028517 -115.195149 26 3394ft 148kts
03-Jan-18 13:35 36.062593 -115.177587 22 2539ft 120kts
03-Jan-18 13:36 36.085968 -115.164355 35 2144ft 51kts
03-Jan-18 13:37 36.086264 -115.157747 88 2144ft 0kts
03-Jan-18 13:38 36.086264 -115.157747 88 2144ft 0kts
03-Jan-18 13:39 36.086264 -115.157747 88 2144ft 0kts
03-Jan-18 13:40 36.086264 -115.157747 88 2144ft 0kts
03-Jan-18 13:41 36.086264 -115.157747 88 2144ft 0kts
03-Jan-18 13:42 36.086264 -115.157747 88 2144ft 0kts
03-Jan-18 13:43 36.086264 -115.157747 88 2144ft 0kts
03-Jan-18 13:44 36.086264 -115.157747 88 2144ft 0kts
03-Jan-18 13:45 36.086264 -115.157747 88 2144ft 0kts
03-Jan-18 13:46 36.086264 -115.157747 88 2144ft 0kts
03-Jan-18 13:47 36.086264 -115.157747 88 2144ft 0kts
03-Jan-18 13:48 36.086264 -115.157747 88 2144ft 0kts
03-Jan-18 13:49 36.086264 -115.157747 88 2144ft 0kts
03-Jan-18 13:50 36.086264 -115.157747 88 2144ft 0kts
03-Jan-18 13:51 36.086264 -115.157747 88 2144ft 0kts

Navigation Log

Ident Type
1. KLAS Airport
2. LAS Navaid
3. KLAS Airport